Ricardo Xhaka

Chief Scout - Grasshopper
3 Dec 2028
Sunday
Process

Personality

Adaptability (10) Ambition (5) Controversy (11) Loyalty (6) Pressure (6) Professionalism (6) Sportsmanship (20) Temperament (4)

Profile

Coaching Style Democratic
License Continental C
Determination 9
Man Management 11
Motivating 9
Discipline 6
Job Satisfaction
100%
Fatigue
0%
Role Chief Scout
Wage 28.4K p/w
Contract 14.03.2030

Performance

Behaviour Good
Training Effectiveness
45%
Player Development
30%
Injury Prevention
30%
Tactical Implementation
45%

Recent Events

Attended a recruitment meeting now
Attended a recruitment meeting now
Birthday 7d ago
Attended a recruitment meeting 7d ago
Attended a recruitment meeting 7d ago
Recommended a transfer target 7d ago
Recommended a transfer target 7d ago
Recommended a transfer target 14d ago

Currently Monitoring

158
Player Club Status Ability Confidence Watched Last Observed Latest Vote
Sergio Córdova Young Boys Lost 112 / 127 72% 1 24.07.2028 -
Jake Evans Crewe Alexandra Active 109 / 117 40% 4 30.05.2028 -
Eli Junior Kroupi Bournemouth Active 140 / 150 40% 6 30.05.2028 -
Tyler Fletcher Rotherham United Active 108 / 127 40% 2 30.05.2028 -
Ryan McAidoo Oldham Athletic Active 118 / 119 40% 6 29.05.2028 -
Kerim Alajbegović Modena Active 139 / 145 40% 4 29.05.2028 -
André Miranda Porto Active 120 / 119 40% 2 28.05.2028 -
Gabe Forsyth Colchester United Active 116 / 117 40% 6 27.05.2028 -
Oskar Pietuszewski Estrela da Amadora Active 136 / 138 40% 4 27.05.2028 -
Rio Ngumoha Plymouth Argyle Active 142 / 152 40% 4 27.05.2028 -
Lennart Karl TSG Hoffenheim Active 139 / 140 40% 7 25.05.2028 -
Fletcher Boyd Accrington Stanley Active 99 / 106 40% 1 25.05.2028 -
Luca Williams-Barnett Walsall Active 123 / 124 40% 9 23.05.2028 -
Suleman Sani Werder Bremen Active 137 / 140 40% 4 21.05.2028 -
Honest Ahanor Atalanta Active 139 / 135 40% 4 21.05.2028 -
Ben Broggio Mansfield Town Active 107 / 108 40% 6 20.05.2028 -
Jorge Salinas Racing Santander Active 130 / 139 40% 4 19.05.2028 -
Amin Nabizada Exeter City Active 112 / 124 40% 6 19.05.2028 -
Gabriel Mec Feirense Active 131 / 131 40% 6 17.05.2028 -
Mustafa Hekimoğlu Antalyaspor Active 128 / 140 40% 3 16.05.2028 -
Ryan Kavuma-McQueen Accrington Stanley Active 123 / 135 40% 7 14.05.2028 -
Christos Mouzakitis Hull City Active 142 / 136 40% 3 13.05.2028 -
Shea Lacey Crystal Palace Active 136 / 142 40% 1 13.05.2028 -
Aarón Ochoa Málaga Active 117 / 120 40% 5 10.05.2028 -
Babis Kostoulas Oxford United Active 145 / 152 40% 6 10.05.2028 -
Leo Pecover Swindon Town Active 101 / 107 40% 2 10.05.2028 -
Josh Nichols Oldham Athletic Active 116 / 130 40% 5 05.05.2028 -
Omar Khedr Gillingham Active 115 / 113 40% 2 05.05.2028 -
Otto Stange Borussia Mönchengladbach Active 130 / 122 40% 3 04.05.2028 -
Oscar Schwartau Norwich City Active 129 / 132 40% 6 01.05.2028 -
Ibrahim Fullah Charlton Athletic Active 125 / 130 40% 6 01.05.2028 -
Ryunosuke Sato Eibar Active 130 / 139 40% 4 25.04.2028 -
Luca Meirelles Kudrivka Active 132 / 114 40% 1 23.04.2028 -
Rémi Himbert AC Ajaccio Active 118 / 126 40% 3 22.04.2028 -
Igor Tyjon Barrow AFC Active 113 / 116 40% 4 22.04.2028 -
Siyabonga Mabena Bidvest Wits Active 112 / 123 40% 2 18.04.2028 -
Trey Nyoni Rotherham United Active 136 / 143 40% 4 13.04.2028 -
Gorka Gorosabel Real Sociedad Active 117 / 129 40% 3 13.04.2028 -
Henrique Carmo Sochi Active 131 / 141 40% 1 10.04.2028 -
Eduardo Fernandes Benfica Active 122 / 128 40% 1 07.04.2028 -
Gomolemo Kekana Maritzburg United Active 112 / 117 40% 5 12.03.2028 -
Nana Nuhu WAFA Active 97 / 82 40% 1 04.03.2028 -
Matias Siltanen Malmo FF Active 126 / 113 40% 1 01.03.2028 -
Lander Astiazarán Real Sociedad Active 107 / 116 40% 2 28.02.2028 -
Ruben Ramos LA Galaxy Active 99 / 101 40% 1 28.02.2028 -
Esquerdinha Notts County Active 123 / 126 40% 1 17.02.2028 -
Lewis Orford Crewe Alexandra Active 114 / 113 40% 1 12.02.2028 -
Christ Wawa Gefle Active 93 / 125 40% 1 08.02.2028 -
Olivier Mambwa Young Boys Lost 112 / 118 40% 1 24.01.2028 -
Juan Camilo Córdoba Deportivo Pereira Active 89 / 86 40% 1 05.01.2028 -
Josh Acheampong Everton Active 136 / 138 40% 1 05.01.2028 -
Mao Hosoya Santos Active 134 / 135 67% 1 01.01.2028 Approve
Daniel Idoko Ikorodu City Active 85 / 109 40% 1 31.12.2027 -
Zane Albarus Shrewsbury Town Active 104 / 101 40% 1 31.12.2027 -
Federico Matarán Giana Erminio Active 91 / 110 40% 2 28.06.2027 -
Sascha Britschgi AC Milan Active 116 / 128 40% 2 28.06.2027 -
Godwin Oham Warri Wolves Active 85 / 85 40% 1 28.06.2027 -
Tommaso Cecotti Carpi Active 95 / 91 40% 1 03.06.2027 -
Brooke Norton-Cuffy Hull City Active 131 / 129 40% 7 28.05.2027 -
Kristoffer Lund Birmingham Active 123 / 124 40% 1 28.05.2027 -
Romelle Donovan Brentford Active 123 / 132 40% 1 28.05.2027 -
Riley Owen Stevenage Active 99 / 117 40% 1 27.05.2027 -
Toby Collyer West Bromwich Albion Active 129 / 137 40% 6 25.05.2027 -
Milan van Ewijk Coventry City Active 134 / 131 40% 5 23.05.2027 -
Calum Agius Crewe Alexandra Active 91 / 96 40% 2 23.05.2027 -
Lewis Bate Stockport County Active 124 / 112 40% 1 23.05.2027 -
Ethan Pye Stockport County Active 113 / 127 40% 4 21.05.2027 -
Jack Currie Oxford United Active 122 / 126 40% 3 21.05.2027 -
Leo Castledine Middlesbrough Active 128 / 134 40% 3 21.05.2027 -
Sanel Šaljić Austria Wien Active 114 / 127 40% 1 21.05.2027 -
Florentino Luís Ipswich Town Active 146 / 149 40% 7 19.05.2027 Monitor
Joel Bagan Cardiff City Active 110 / 112 40% 9 19.05.2027 -
Max Bird Birmingham Active 138 / 139 40% 5 19.05.2027 -
Welington Southampton Active 131 / 136 40% 2 18.05.2027 -
Alfie Gilchrist West Bromwich Albion Active 123 / 131 40% 1 18.05.2027 -
Shea Charles Southampton Active 130 / 137 40% 4 15.05.2027 -
Bosun Lawal Stoke City Active 131 / 137 40% 6 15.05.2027 -
Dennis Cirkin Queens Park Rangers Active 135 / 136 40% 4 13.05.2027 -
Samuele di Benedetto Twente Active 119 / 127 40% 3 13.05.2027 -
Víctor Guzmán Sporting CP Active 94 / 102 40% 2 13.05.2027 -
Gabriele Bertolini Vicenza Active 102 / 109 40% 3 12.05.2027 -
Asanele Bonani Chippa United Active 98 / 91 40% 1 12.05.2027 -
Lucas Ferreira Shakhtar Active 130 / 122 40% 1 12.05.2027 -
Lewis Ferguson Bologna Active 148 / 139 40% 4 10.05.2027 -
Darlin Yongwa Norwich City Active 126 / 116 40% 4 09.05.2027 -
Jonathan Varane Queens Park Rangers Active 121 / 132 40% 2 09.05.2027 -
Max Johnston Derby County Active 130 / 120 40% 4 09.05.2027 -
Luke McNally Bristol City Active 133 / 132 40% 8 06.05.2027 -
Lee Buchanan Sheffield Wednesday Active 118 / 120 40% 2 06.05.2027 -
Pelle Mattsson Norwich City Active 124 / 135 40% 2 06.05.2027 -
Jacob Greaves Ipswich Town Active 142 / 128 40% 2 05.05.2027 -
Harry Clarke Preston Active 130 / 136 40% 5 04.05.2027 -
Ryan Oné Sheffield United Active 115 / 126 40% 1 04.05.2027 -
Terry Devlin Portsmouth Active 121 / 114 40% 1 01.05.2027 -
Alexander Prass TSG Hoffenheim Active 137 / 132 40% 5 30.04.2027 -
Zakaria El Ouahdi Hamburger SV Active 130 / 137 40% 4 30.04.2027 -
Aidan Morris Middlesbrough Active 126 / 120 40% 5 29.04.2027 -
Jacques Ekomié Wrexham Active 133 / 141 40% 5 26.04.2027 -
Derry Murkin Derby County Active 134 / 118 40% 2 26.04.2027 -
Bence Dárdai VfL Wolfsburg Active 137 / 124 40% 1 26.04.2027 -
Oliver Skipp Leicester City Active 126 / 125 40% 3 22.04.2027 -
Max Rosenfelder SC Freiburg Active 130 / 142 40% 2 14.04.2027 -
Harrison Burrows Sheffield United Active 120 / 132 40% 1 11.04.2027 -
Habib Diarra Sunderland Active 141 / 136 40% 2 05.04.2027 -
Alfie Doughty Millwall Active 125 / 121 40% 2 03.04.2027 -
Tariq Lamptey Queens Park Rangers Active 137 / 132 40% 1 02.04.2027 -
Max Arfsten Middlesbrough Active 122 / 136 40% 1 30.03.2027 -
Enrico Delprato Parma Active 144 / 135 40% 2 22.03.2027 -
Japhet Tanganga Sheffield United Active 137 / 141 40% 1 22.03.2027 -
Adis Jašić Zamalek Active 124 / 113 40% 1 16.03.2027 -
Brian De Keersmaecker Oxford United Active 118 / 113 40% 1 16.03.2027 -
Johnly Yfeko Exeter City Active 105 / 112 40% 1 12.03.2027 -
Alessandro Buongiorno Cagliari Active 149 / 154 40% 1 06.03.2027 -
Samuel Edozie Southampton Active 131 / 133 40% 1 05.03.2027 -
Marcelo Allende Mamelodi Sundowns Active 124 / 129 40% 2 04.03.2027 -
Juan Bezerra Zamalek Active 123 / 128 40% 1 03.03.2027 -
Oswin Appollis Orlando Pirates Active 135 / 123 40% 1 03.03.2027 -
Isaiah Jones Luton Town Active 128 / 122 40% 3 02.03.2027 -
Ilyas Ansah Hull City Active 137 / 143 40% 1 02.03.2027 -
Bazoumana Touré Newcastle United Active 140 / 138 40% 1 02.03.2027 -
Peter Federico Gornik Zabrze Active 134 / 133 40% 2 28.02.2027 -
Scott Twine Bristol City Active 116 / 129 40% 1 28.02.2027 -
Jason Knight Bristol City Active 134 / 122 40% 1 26.02.2027 -
Jack Rudoni Coventry City Active 131 / 142 40% 2 25.02.2027 -
Cian Ashford Cardiff City Active 123 / 113 40% 2 25.02.2027 -
Mohamed-Ali Cho Hull City Active 134 / 127 40% 2 20.02.2027 -
Nathan Moriah-Welsh Mansfield Town Active 106 / 111 40% 1 20.02.2027 -
Derensili Sanches Fernandes Huddersfield Town Active 118 / 124 40% 1 14.02.2027 -
Nicolas Madsen Queens Park Rangers Active 129 / 127 40% 1 14.02.2027 -
Armstrong Oko-Flex Levski Active 119 / 110 40% 1 12.02.2027 -
Jack Diamond Stockport County Active 120 / 127 40% 1 12.02.2027 -
Raoul Bellanova Atalanta Active 144 / 148 40% 1 08.02.2027 -
Matt O'Riley Brighton Active 142 / 142 40% 1 08.02.2027 -
Finn Azaz Southampton Active 138 / 119 40% 2 06.02.2027 -
Serge-Philippe Raux-Yao Rapid Wien Active 123 / 117 40% 3 04.02.2027 -
Petter Nosa Dahl Rapid Wien Active 120 / 118 40% 1 12.01.2027 -
Peter Shalulile Mamelodi Sundowns Active 134 / 115 40% 1 12.01.2027 -
Sampson Dweh Mallorca Active 133 / 134 66% 1 01.01.2027 Approve
Lee Tae-Suk Austria Wien Active 126 / 130 40% 3 11.12.2026 -
Abubakr Barry Red Bull Salzburg Active 124 / 126 40% 5 10.12.2026 -
Lebogang Manyama SuperSport United Active 110 / 110 40% 1 10.12.2026 -
Cheick Mamadou Diabaté Wolfsberger AC Active 123 / 131 40% 1 21.11.2026 -
Metinho Basel Active 125 / 140 40% 1 20.11.2026 Needs More Info
Dara O'Shea Ipswich Town Active 132 / 128 40% 1 20.11.2026 -
Armin Gigović Young Boys Active 129 / 123 40% 1 19.11.2026 -
Boris Matić Red Bull Salzburg Active 122 / 114 40% 2 08.11.2026 -
Mattia Zanotti Young Boys Active 125 / 138 40% 1 08.11.2026 -
Paul Koller Sturm Graz Active 110 / 112 40% 2 07.11.2026 -
Carlo Boukhalfa St. Gallen Active 116 / 114 40% 1 07.11.2026 -
Fabian Wohlmuth Wolfsberger AC Active 108 / 112 40% 1 05.11.2026 -
Tom Gaal St. Gallen Active 117 / 122 40% 1 04.11.2026 -
Isaac Schmidt Young Boys Active 119 / 127 40% 1 04.11.2026 -
Jordy Makengo SC Freiburg Active 129 / 138 40% 1 02.11.2026 -
Bendegúz Bolla Rapid Wien Active 131 / 128 40% 1 05.10.2026 -
Benjamin Böckle Altach Active 109 / 118 40% 1 05.10.2026 -
Youssoufa Moukoko FC Copenhagen Active 136 / 131 40% 1 31.08.2026 -
Ryan Gauld Vancouver Whitecaps Active 127 / 118 40% 1 26.08.2026 -
Julian Niehues Heidenheim Active 115 / 118 40% 1 01.08.2026 -